Time;durP1;ratioP1;P1;durP2;ratioP2;P2;SDS_P1;SDS_P2;PMS_P1;PMS_P2;Temp;Humidity;BMP_temperature;BMP_pressure;BME280_temperature;BME280_humidity;BME280_pressure;Samples;Min_cycle;Max_cycle;Signal;HPM_P1;HPM_P2
2022/09/26 00:01:11;;;;;;;;;;;;;;;18.96;59.47;100143.02;2153612;80;52220;-77
2022/09/26 00:04:18;;;;;;;;;;;;;;;18.97;59.46;100143.84;2229088;80;50400;-77
2022/09/26 00:07:19;;;;;;;;;;;;;;;18.97;59.44;100138.48;2228994;80;51560;-77
2022/09/26 00:10:21;;;;;;;;;;;;;;;18.97;59.45;100138.48;2229148;80;51392;-77
2022/09/26 00:13:23;;;;;;;;;;;;;;;18.97;59.43;100141.16;2206765;80;50790;-77
2022/09/26 00:16:24;;;;;;;;;;;;;;;18.97;59.42;100137.14;2229127;80;52365;-77
2022/09/26 00:19:26;;;;;;;;;;;;;;;18.98;59.39;100133.41;2206540;80;51021;-77
2022/09/26 00:22:28;;;;;;;;;;;;;;;18.96;59.41;100129.61;2206633;80;51520;-77
2022/09/26 00:25:29;;;;;;;;;;;;;;;18.96;59.41;100129.61;2229082;80;50701;-77
2022/09/26 00:28:31;;;;;;;;;;;;;;;18.95;59.43;100121.23;2229308;80;51548;-77
2022/09/26 00:31:33;;;;;;;;;;;;;;;18.96;59.40;100124.73;2206616;79;50990;-77
2022/09/26 00:34:35;;;;;;;;;;;;;;;18.96;59.38;100124.25;2176893;81;50784;-77
2022/09/26 00:37:36;;;;;;;;;;;;;;;18.96;59.41;100131.44;2151587;82;51531;-77
2022/09/26 00:40:38;;;;;;;;;;;;;;;18.96;59.41;100127.42;2175147;82;51625;-77
2022/09/26 00:43:41;;;;;;;;;;;;;;;18.95;59.36;100127.11;2151394;82;50126;-77
2022/09/26 00:46:43;;;;;;;;;;;;;;;18.96;59.36;100123.40;2175058;82;51596;-77
2022/09/26 00:49:45;;;;;;;;;;;;;;;18.95;59.34;100122.58;2175151;82;51601;-77
2022/09/26 00:52:51;;;;;;;;;;;;;;;18.95;59.33;100123.09;2175113;82;51546;-77
2022/09/26 00:55:54;;;;;;;;;;;;;;;18.96;59.33;100120.72;2145713;81;51887;-77
2022/09/26 00:58:57;;;;;;;;;;;;;;;18.93;59.35;100121.94;2120215;82;50830;-78
2022/09/26 01:01:59;;;;;;;;;;;;;;;18.95;59.35;100124.44;2140910;82;51653;-78
2022/09/26 01:05:01;;;;;;;;;;;;;;;18.95;59.31;100117.73;2175034;82;51545;-77
2022/09/26 01:08:02;;;;;;;;;;;;;;;18.92;59.36;100113.08;2151555;82;52510;-77
2022/09/26 01:11:04;;;;;;;;;;;;;;;18.94;59.31;100110.21;2175104;82;51588;-77
2022/09/26 01:14:06;;;;;;;;;;;;;;;18.93;59.33;100104.02;2174961;82;50405;-77
2022/09/26 01:17:08;;;;;;;;;;;;;;;18.94;59.30;100103.50;2175062;81;51600;-77
2022/09/26 01:20:11;;;;;;;;;;;;;;;18.93;59.29;100104.02;2175174;81;51563;-77
2022/09/26 01:23:17;;;;;;;;;;;;;;;18.93;59.30;100098.66;2174782;81;51595;-77
2022/09/26 01:26:29;;;;;;;;;;;;;;;18.92;59.31;100095.65;2175125;82;50855;-77
2022/09/26 01:29:32;;;;;;;;;;;;;;;18.91;59.29;100098.03;2174673;81;50871;-77
2022/09/26 01:32:48;;;;;;;;;;;;;;;18.93;59.27;100087.09;2150373;82;51836;-77
2022/09/26 01:36:06;;;;;;;;;;;;;;;18.91;59.28;100077.10;2153249;81;52735;-77
2022/09/26 01:39:21;;;;;;;;;;;;;;;18.92;59.25;100078.22;2176650;80;52701;-75
2022/09/26 01:42:27;;;;;;;;;;;;;;;18.92;59.27;100081.42;2176386;81;50784;-77
2022/09/26 01:45:30;;;;;;;;;;;;;;;18.91;59.25;100071.22;2176663;80;51528;-77
2022/09/26 01:48:33;;;;;;;;;;;;;;;18.91;59.25;100076.58;2152900;81;52586;-77
2022/09/26 01:51:40;;;;;;;;;;;;;;;18.90;59.28;100065.53;2176938;81;50744;-76
2022/09/26 01:54:43;;;;;;;;;;;;;;;18.91;59.25;100069.88;2176481;80;51532;-76
2022/09/26 01:57:46;;;;;;;;;;;;;;;18.90;59.24;100064.19;2153398;81;49706;-76
2022/09/26 02:00:47;;;;;;;;;;;;;;;18.90;59.23;100066.87;2149607;81;51350;-76
2022/09/26 02:03:50;;;;;;;;;;;;;;;18.90;59.23;100069.55;2175811;80;50276;-77
2022/09/26 02:06:56;;;;;;;;;;;;;;;18.91;59.19;100067.20;2175087;82;51571;-76
2022/09/26 02:09:59;;;;;;;;;;;;;;;18.89;59.26;100062.55;2174802;81;51632;-76
2022/09/26 02:13:02;;;;;;;;;;;;;;;18.90;59.22;100062.02;2151716;81;51884;-77
2022/09/26 02:16:08;;;;;;;;;;;;;;;18.90;59.19;100062.84;2174689;80;51635;-76
2022/09/26 02:19:10;;;;;;;;;;;;;;;18.90;59.17;100053.98;2175128;81;50337;-77
2022/09/26 02:22:12;;;;;;;;;;;;;;;18.88;59.20;100048.84;2175022;82;51580;-76
2022/09/26 02:25:13;;;;;;;;;;;;;;;18.88;59.18;100038.12;2152026;81;51020;-76
2022/09/26 02:28:15;;;;;;;;;;;;;;;18.89;59.16;100042.96;2179375;80;51500;-77
2022/09/26 02:31:22;;;;;;;;;;;;;;;18.88;59.21;100040.80;2175921;81;50422;-77
2022/09/26 02:34:21;;;;;;;;;;;;;;;18.89;59.14;100042.44;2174458;80;22498;-76
2022/09/26 02:37:22;;;;;;;;;;;;;;;18.89;59.13;100027.70;2152033;81;52551;-77
2022/09/26 02:40:26;;;;;;;;;;;;;;;18.88;59.15;100030.08;2176235;82;51496;-76
2022/09/26 02:43:45;;;;;;;;;;;;;;;18.89;59.13;100029.03;2179037;82;50699;-77
2022/09/26 02:46:54;;;;;;;;;;;;;;;18.90;59.11;100025.31;2175110;82;51562;-77
2022/09/26 02:49:58;;;;;;;;;;;;;;;18.89;59.11;100030.37;2151594;81;52641;-77
2022/09/26 02:53:04;;;;;;;;;;;;;;;18.89;59.13;100026.87;2175326;80;50234;-76
2022/09/26 02:56:19;;;;;;;;;;;;;;;18.89;59.08;100016.97;2177822;81;52602;-77
2022/09/26 02:59:22;;;;;;;;;;;;;;;18.89;59.09;100016.16;2175922;82;50331;-77
2022/09/26 03:02:25;;;;;;;;;;;;;;;18.89;59.06;100011.61;2152666;81;51023;-77
2022/09/26 03:05:27;;;;;;;;;;;;;;;18.87;59.09;100012.32;2220337;80;50682;-77
2022/09/26 03:08:29;;;;;;;;;;;;;;;18.87;59.09;100008.81;2229238;80;50396;-77
2022/09/26 03:11:30;;;;;;;;;;;;;;;18.87;59.05;100002.94;2229077;80;52326;-76
2022/09/26 03:14:32;;;;;;;;;;;;;;;18.87;59.04;100002.94;2206489;80;49598;-77
2022/09/26 03:17:34;;;;;;;;;;;;;;;18.87;59.04;100002.12;2229029;80;51561;-76
2022/09/26 03:20:36;;;;;;;;;;;;;;;18.87;59.06;100003.45;2229053;80;51592;-76
2022/09/26 03:23:37;;;;;;;;;;;;;;;18.88;59.06;99995.72;2228990;80;52625;-76
2022/09/26 03:26:39;;;;;;;;;;;;;;;18.87;59.01;99998.91;2206512;80;52591;-76
2022/09/26 03:29:41;;;;;;;;;;;;;;;18.87;59.02;99997.58;2229028;80;51518;-76
2022/09/26 03:32:43;;;;;;;;;;;;;;;18.88;59.02;99999.73;2229089;80;50300;-77
2022/09/26 03:35:44;;;;;;;;;;;;;;;18.88;58.96;99999.73;2180441;80;50705;-77
2022/09/26 03:38:46;;;;;;;;;;;;;;;18.86;59.00;100002.64;2131052;81;52629;-77
2022/09/26 03:41:47;;;;;;;;;;;;;;;18.85;59.03;99998.28;2176969;80;51528;-77
2022/09/26 03:44:49;;;;;;;;;;;;;;;18.85;59.03;99996.13;2176829;81;51588;-77
2022/09/26 03:47:57;;;;;;;;;;;;;;;18.88;58.95;99995.72;2153930;81;50685;-77
2022/09/26 03:51:03;;;;;;;;;;;;;;;18.85;59.01;99980.86;2154041;81;53031;-77
2022/09/26 03:54:05;;;;;;;;;;;;;;;18.85;58.98;99980.04;2176302;80;51570;-78
2022/09/26 03:57:06;;;;;;;;;;;;;;;18.86;59.00;99975.02;2177033;80;51508;-78
2022/09/26 04:00:08;;;;;;;;;;;;;;;18.85;58.96;99979.52;2176969;81;50118;-76
2022/09/26 04:03:10;;;;;;;;;;;;;;;18.85;58.95;99972.82;2131844;81;50143;-77
2022/09/26 04:06:12;;;;;;;;;;;;;;;18.83;58.99;99972.22;2176852;81;51380;-76
2022/09/26 04:09:16;;;;;;;;;;;;;;;18.85;58.93;99968.80;2177026;81;51489;-76
2022/09/26 04:12:17;;;;;;;;;;;;;;;18.84;58.95;99968.50;2153823;81;22367;-76
2022/09/26 04:15:18;;;;;;;;;;;;;;;18.84;58.96;99965.81;2153755;81;50046;-76
2022/09/26 04:18:20;;;;;;;;;;;;;;;18.84;58.94;99967.68;2152946;81;51563;-76
2022/09/26 04:21:21;;;;;;;;;;;;;;;18.83;58.92;99956.14;2176957;81;52473;-76
2022/09/26 04:24:23;;;;;;;;;;;;;;;18.85;58.90;99961.28;2176796;81;51479;-77
2022/09/26 04:27:27;;;;;;;;;;;;;;;18.84;58.88;99955.09;2131469;81;52528;-76
2022/09/26 04:30:29;;;;;;;;;;;;;;;18.84;58.91;99948.91;2153374;81;51544;-76
2022/09/26 04:33:31;;;;;;;;;;;;;;;18.84;58.89;99947.58;2153383;81;51502;-77
2022/09/26 04:36:32;;;;;;;;;;;;;;;18.83;58.92;99950.77;2153474;81;51534;-76
2022/09/26 04:39:34;;;;;;;;;;;;;;;18.85;58.85;99958.08;2176344;80;51751;-76
2022/09/26 04:42:36;;;;;;;;;;;;;;;18.83;58.89;99956.14;2153304;80;50044;-77
2022/09/26 04:45:43;;;;;;;;;;;;;;;18.84;58.88;99958.30;2153133;81;50341;-76
2022/09/26 04:48:45;;;;;;;;;;;;;;;18.83;58.88;99959.30;2177019;81;51522;-76
2022/09/26 04:51:47;;;;;;;;;;;;;;;18.84;58.84;99953.75;2153933;81;51008;-76
2022/09/26 04:54:48;;;;;;;;;;;;;;;18.83;58.81;99948.09;2153601;81;51547;-77
2022/09/26 04:57:50;;;;;;;;;;;;;;;18.83;58.88;99946.75;2176889;81;50730;-77
2022/09/26 05:00:52;;;;;;;;;;;;;;;18.83;58.83;99945.41;2176877;80;51452;-76
2022/09/26 05:03:58;;;;;;;;;;;;;;;18.82;58.81;99947.77;2152943;81;52492;-77
2022/09/26 05:06:58;;;;;;;;;;;;;;;18.81;58.85;99944.78;2176416;81;22386;-77
2022/09/26 05:09:59;;;;;;;;;;;;;;;18.82;58.84;99945.08;2176956;80;51552;-77
2022/09/26 05:13:02;;;;;;;;;;;;;;;18.82;58.85;99941.58;2153254;81;51501;-77
2022/09/26 05:16:04;;;;;;;;;;;;;;;18.82;58.83;99937.56;2175459;80;50410;-77
2022/09/26 05:19:07;;;;;;;;;;;;;;;18.82;58.79;99941.06;2175063;82;51531;-77
2022/09/26 05:22:09;;;;;;;;;;;;;;;18.82;58.80;99939.72;2175072;82;50158;-77
2022/09/26 05:28:30;;;;;;;;;;;;;;;18.83;58.76;99935.18;2175304;82;22431;-78
2022/09/26 05:31:35;;;;;;;;;;;;;;;18.83;58.75;99940.05;2150429;81;50351;-78
2022/09/26 05:34:35;;;;;;;;;;;;;;;18.82;58.75;99934.36;2175004;81;22342;-78
2022/09/26 05:37:37;;;;;;;;;;;;;;;18.83;58.75;99936.52;2175004;82;50763;-77
2022/09/26 05:40:56;;;;;;;;;;;;;;;18.83;58.72;99940.05;2175232;82;51510;-78
2022/09/26 05:43:58;;;;;;;;;;;;;;;18.82;58.77;99941.06;2154784;80;51580;-78
2022/09/26 05:47:00;;;;;;;;;;;;;;;18.83;58.74;99938.72;2206549;80;50735;-78
2022/09/26 05:50:08;;;;;;;;;;;;;;;18.84;58.72;99936.85;2229373;80;50741;-78
2022/09/26 05:53:05;;;;;;;;;;;;;;;18.83;58.70;99937.38;2228690;79;22478;-78
2022/09/26 05:56:07;;;;;;;;;;;;;;;18.83;58.73;99936.03;2206562;80;50738;-78
2022/09/26 05:59:09;;;;;;;;;;;;;;;18.85;58.70;99930.45;2229223;80;51465;-78
2022/09/26 06:02:10;;;;;;;;;;;;;;;18.84;58.73;99936.85;2206714;80;51564;-78
2022/09/26 06:05:12;;;;;;;;;;;;;;;18.83;58.74;99930.67;2206467;80;51844;-78
2022/09/26 06:08:16;;;;;;;;;;;;;;;18.87;58.69;99932.42;2229041;80;50418;-78
2022/09/26 06:11:21;;;;;;;;;;;;;;;18.88;58.67;99926.88;2206803;80;51581;-78
2022/09/26 06:14:25;;;;;;;;;;;;;;;18.92;58.63;99930.78;2221791;80;22333;-78
2022/09/26 06:17:25;;;;;;;;;;;;;;;18.90;58.67;99928.81;2176944;80;22372;-77
2022/09/26 06:20:27;;;;;;;;;;;;;;;18.90;58.63;99933.35;2153686;81;51517;-78
2022/09/26 06:23:29;;;;;;;;;;;;;;;18.93;58.73;99924.90;2153428;81;51566;-78
2022/09/26 06:26:31;;;;;;;;;;;;;;;18.99;58.59;99921.95;2177028;80;50430;-78
2022/09/26 06:29:33;;;;;;;;;;;;;;;19.02;58.46;99930.39;2153349;81;49261;-78
2022/09/26 06:32:35;;;;;;;;;;;;;;;19.06;58.38;99924.10;2153501;81;50486;-77
2022/09/26 06:35:36;;;;;;;;;;;;;;;19.05;58.41;99918.44;2153251;81;50570;-78
2022/09/26 06:38:38;;;;;;;;;;;;;;;19.07;58.23;99922.57;2177058;80;50360;-78
2022/09/26 06:41:39;;;;;;;;;;;;;;;19.04;58.37;99917.62;2153376;81;51263;-78
2022/09/26 06:44:41;;;;;;;;;;;;;;;19.09;58.34;99908.45;2175837;81;50732;-78
2022/09/26 06:47:42;;;;;;;;;;;;;;;19.12;58.37;99908.55;2153385;81;50638;-78
2022/09/26 06:50:44;;;;;;;;;;;;;;;19.16;58.33;99900.39;2153493;81;51474;-78
2022/09/26 06:53:46;;;;;;;;;;;;;;;19.17;58.29;99898.04;2153506;81;52464;-78
2022/09/26 06:56:47;;;;;;;;;;;;;;;19.21;58.22;99898.44;2153754;81;50729;-78
2022/09/26 06:59:49;;;;;;;;;;;;;;;19.23;58.15;99893.19;2153506;81;51542;-78
2022/09/26 07:02:51;;;;;;;;;;;;;;;19.26;58.10;99892.77;2154198;81;50431;-78
2022/09/26 07:05:59;;;;;;;;;;;;;;;19.28;58.07;99891.23;2143656;81;51047;-78
2022/09/26 07:08:58;;;;;;;;;;;;;;;19.31;57.98;99891.63;2176950;80;23102;-78
2022/09/26 07:11:59;;;;;;;;;;;;;;;19.31;57.92;99898.34;2153740;81;51629;-78
2022/09/26 07:15:02;;;;;;;;;;;;;;;19.32;57.84;99895.17;2190116;80;51033;-78
2022/09/26 07:18:05;;;;;;;;;;;;;;;19.33;57.77;99890.09;2206638;80;49641;-78
2022/09/26 07:21:06;;;;;;;;;;;;;;;19.34;57.76;99885.03;2206774;80;51542;-78
2022/09/26 07:24:12;;;;;;;;;;;;;;;19.35;57.71;99887.52;2206529;80;51049;-78
2022/09/26 07:27:11;;;;;;;;;;;;;;;19.36;57.69;99889.16;2228846;79;22354;-77
2022/09/26 07:30:13;;;;;;;;;;;;;;;19.35;57.66;99883.50;2206693;80;51015;-77
2022/09/26 07:33:15;;;;;;;;;;;;;;;19.37;57.63;99887.33;2206502;80;51316;-77
2022/09/26 07:36:17;;;;;;;;;;;;;;;19.37;57.63;99879.28;2228927;80;50323;-76
2022/09/26 07:39:18;;;;;;;;;;;;;;;19.39;57.63;99876.37;2206865;80;51610;-76
2022/09/26 07:42:20;;;;;;;;;;;;;;;19.39;57.51;99881.21;2206429;80;49823;-76
2022/09/26 07:50:10;;;;;;;;;;;;;;;19.39;57.54;99879.05;2204252;80;51561;-77
2022/09/26 07:51:45;;;;;;;;;;;;;;;19.41;57.59;99871.11;2177276;81;22248;-77
2022/09/26 07:54:47;;;;;;;;;;;;;;;19.42;57.46;99866.56;2152943;81;49550;-76
2022/09/26 07:57:48;;;;;;;;;;;;;;;19.42;57.44;99876.80;2153456;81;50384;-76
2022/09/26 08:00:50;;;;;;;;;;;;;;;19.43;57.37;99877.62;2153435;81;51543;-76
2022/09/26 08:03:53;;;;;;;;;;;;;;;19.40;57.42;99870.81;2176848;81;51699;-76
2022/09/26 08:06:55;;;;;;;;;;;;;;;19.40;57.42;99872.67;2153353;81;50155;-77
2022/09/26 08:09:57;;;;;;;;;;;;;;;19.39;57.40;99873.69;2176873;81;50422;-76
2022/09/26 08:13:00;;;;;;;;;;;;;;;19.36;57.45;99874.41;2176188;80;51556;-77
2022/09/26 08:16:03;;;;;;;;;;;;;;;19.35;57.42;99873.29;2150274;81;50361;-76
2022/09/26 08:19:06;;;;;;;;;;;;;;;19.32;57.44;99878.55;2128120;82;51260;-77
2022/09/26 08:22:08;;;;;;;;;;;;;;;19.31;57.43;99867.48;2151134;81;22837;-77
2022/09/26 08:25:09;;;;;;;;;;;;;;;19.30;57.51;99877.11;2174879;82;51618;-78
2022/09/26 08:28:11;;;;;;;;;;;;;;;19.30;57.42;99869.88;2150220;82;51452;-77
2022/09/26 08:31:13;;;;;;;;;;;;;;;19.31;57.40;99866.16;2151679;81;50232;-77
2022/09/26 08:34:14;;;;;;;;;;;;;;;19.29;57.42;99866.90;2150334;82;51533;-77
2022/09/26 08:37:16;;;;;;;;;;;;;;;19.30;57.40;99867.20;2174913;82;51576;-77
2022/09/26 08:40:18;;;;;;;;;;;;;;;19.29;57.46;99865.55;2150557;80;51440;-78
2022/09/26 08:43:30;;;;;;;;;;;;;;;19.27;57.49;99862.77;2151485;81;51002;-77
2022/09/26 08:46:57;;;;;;;;;;;;;;;19.28;57.49;99859.05;2174898;82;51600;-78
2022/09/26 08:49:58;;;;;;;;;;;;;;;19.29;57.42;99858.85;2174056;81;22373;-77
2022/09/26 08:53:04;;;;;;;;;;;;;;;19.28;57.43;99851.81;2175130;81;22388;-77
2022/09/26 08:56:07;;;;;;;;;;;;;;;19.28;57.46;99851.00;2150746;80;49656;-77
2022/09/26 08:59:10;;;;;;;;;;;;;;;19.28;57.43;99860.39;2174979;81;50507;-77
2022/09/26 09:02:14;;;;;;;;;;;;;;;19.25;57.48;99847.39;2175123;81;50393;-77
2022/09/26 09:05:31;;;;;;;;;;;;;;;19.26;57.46;99836.97;2174318;82;50465;-77
2022/09/26 09:08:36;;;;;;;;;;;;;;;19.27;57.45;99836.77;2175153;80;23201;-78
2022/09/26 09:11:39;;;;;;;;;;;;;;;19.26;57.42;99836.44;2175017;82;50284;-77
2022/09/26 09:14:42;;;;;;;;;;;;;;;19.26;57.43;99836.44;2175696;81;50438;-77
2022/09/26 09:17:48;;;;;;;;;;;;;;;19.25;57.47;99829.44;2177080;80;50305;-77
2022/09/26 09:20:54;;;;;;;;;;;;;;;19.25;57.48;99829.44;2177090;80;51699;-77
2022/09/26 09:24:10;;;;;;;;;;;;;;;19.25;57.44;99827.28;2177001;80;51678;-77
2022/09/26 09:27:28;;;;;;;;;;;;;;;19.24;57.44;99825.61;2176586;80;50234;-77
2022/09/26 09:30:34;;;;;;;;;;;;;;;19.25;57.37;99818.71;2177072;81;50784;-77
2022/09/26 09:33:40;;;;;;;;;;;;;;;19.24;57.40;99815.73;2153260;81;51397;-77
2022/09/26 09:36:42;;;;;;;;;;;;;;;19.23;57.43;99814.59;2177001;81;51614;-77
2022/09/26 09:39:45;;;;;;;;;;;;;;;19.22;57.47;99813.77;2177064;80;50800;-77
2022/09/26 09:42:48;;;;;;;;;;;;;;;19.22;57.42;99812.42;2176358;81;51504;-77
2022/09/26 09:45:53;;;;;;;;;;;;;;;19.22;57.43;99805.72;2151270;81;52701;-77
2022/09/26 09:48:57;;;;;;;;;;;;;;;19.23;57.35;99803.34;2175007;82;51547;-77
2022/09/26 09:52:03;;;;;;;;;;;;;;;19.21;57.45;99803.23;2174742;80;51507;-77
2022/09/26 09:55:12;;;;;;;;;;;;;;;19.22;57.47;99796.34;2174802;82;50952;-78
2022/09/26 09:58:28;;;;;;;;;;;;;;;19.22;57.44;99803.56;2175073;80;50466;-77
2022/09/26 10:01:42;;;;;;;;;;;;;;;19.23;57.38;99797.97;2159521;81;51540;-77
2022/09/26 10:04:45;;;;;;;;;;;;;;;19.21;57.47;99789.30;2175097;82;51488;-77
2022/09/26 10:07:48;;;;;;;;;;;;;;;19.20;57.54;99784.16;2175140;82;50292;-78
2022/09/26 10:10:53;;;;;;;;;;;;;;;19.19;57.59;99789.20;2152059;81;50109;-78
2022/09/26 10:13:56;;;;;;;;;;;;;;;19.17;57.60;99770.66;2175461;81;51549;-78
2022/09/26 10:17:12;;;;;;;;;;;;;;;19.15;57.60;99774.06;2177188;81;51566;-78
2022/09/26 10:20:33;;;;;;;;;;;;;;;19.15;57.64;99777.56;2177197;81;50701;-78
2022/09/26 10:23:38;;;;;;;;;;;;;;;19.19;57.56;99766.41;2177656;79;22797;-75
2022/09/26 10:26:40;;;;;;;;;;;;;;;19.18;57.61;99762.91;2177391;80;50859;-77
2022/09/26 10:29:41;;;;;;;;;;;;;;;19.18;57.66;99760.23;2177479;80;51581;-78
2022/09/26 10:32:46;;;;;;;;;;;;;;;19.17;57.62;99742.50;2158324;81;50806;-77
2022/09/26 10:35:50;;;;;;;;;;;;;;;19.17;57.57;99749.20;2156041;80;49704;-78
2022/09/26 10:42:19;;;;;;;;;;;;;;;19.15;57.65;99740.53;2177814;81;22269;-78
2022/09/26 10:45:26;;;;;;;;;;;;;;;19.15;57.63;99741.87;2152872;82;52609;-77
2022/09/26 10:48:25;;;;;;;;;;;;;;;19.15;57.66;99741.87;2179010;80;22550;-77
2022/09/26 10:51:38;;;;;;;;;;;;;;;19.15;57.68;99730.62;2175739;81;51098;-77
2022/09/26 10:54:41;;;;;;;;;;;;;;;19.17;57.55;99734.45;2180947;81;50317;-77
2022/09/26 10:57:46;;;;;;;;;;;;;;;19.15;57.59;99732.49;2174849;80;50675;-77
2022/09/26 11:00:51;;;;;;;;;;;;;;;19.13;57.61;99729.19;2153167;82;50985;-77
2022/09/26 11:03:54;;;;;;;;;;;;;;;19.13;57.60;99722.48;2155117;82;50636;-76
2022/09/26 11:06:56;;;;;;;;;;;;;;;19.14;57.60;99724.97;2175099;82;51577;-77
2022/09/26 11:09:59;;;;;;;;;;;;;;;19.12;57.64;99725.69;2175146;82;51492;-77
2022/09/26 11:13:01;;;;;;;;;;;;;;;19.13;57.70;99719.80;2151535;81;50217;-78
2022/09/26 11:16:07;;;;;;;;;;;;;;;19.14;57.72;99718.79;2175072;80;51545;-77
2022/09/26 11:19:10;;;;;;;;;;;;;;;19.13;57.68;99717.94;2175182;81;50729;-77
2022/09/26 11:22:24;;;;;;;;;;;;;;;19.14;57.71;99712.09;2175001;80;51728;-77
2022/09/26 11:25:27;;;;;;;;;;;;;;;19.14;57.66;99709.41;2175294;80;22444;-77
2022/09/26 11:28:31;;;;;;;;;;;;;;;19.14;57.62;99713.43;2173950;80;51673;-77
2022/09/26 11:31:36;;;;;;;;;;;;;;;19.13;57.65;99709.08;2175000;82;50417;-77
2022/09/26 11:34:39;;;;;;;;;;;;;;;19.13;57.65;99704.53;2174921;82;50270;-77
2022/09/26 11:37:49;;;;;;;;;;;;;;;19.12;57.64;99702.90;2174961;80;50689;-77
2022/09/26 11:41:09;;;;;;;;;;;;;;;19.12;57.63;99692.70;2175092;80;50302;-77
2022/09/26 11:44:16;;;;;;;;;;;;;;;19.13;57.64;99693.80;2174891;80;50288;-78
2022/09/26 11:47:30;;;;;;;;;;;;;;;19.13;57.60;99687.63;2173170;82;22407;-77
2022/09/26 11:50:35;;;;;;;;;;;;;;;19.13;57.62;99687.63;2152152;81;49631;-77
2022/09/26 11:53:54;;;;;;;;;;;;;;;19.14;57.62;99700.02;2175021;82;51512;-78
2022/09/26 11:57:05;;;;;;;;;;;;;;;19.12;57.55;99684.66;2175042;82;51543;-78
2022/09/26 12:00:23;;;;;;;;;;;;;;;19.12;57.55;99688.15;2175011;82;50247;-77
2022/09/26 12:03:18;;;;;;;;;;;;;;;19.10;57.60;99682.69;2185755;81;22480;-76
2022/09/26 12:06:34;;;;;;;;;;;;;;;19.11;57.59;99677.12;2176989;81;50194;-76
2022/09/26 12:09:51;;;;;;;;;;;;;;;19.11;57.62;99666.89;2176533;81;22904;-77
2022/09/26 12:13:11;;;;;;;;;;;;;;;19.10;57.60;99663.39;2177062;81;50336;-78
2022/09/26 12:16:23;;;;;;;;;;;;;;;19.09;57.64;99656.40;2153740;81;51001;-78
2022/09/26 12:19:35;;;;;;;;;;;;;;;19.11;57.64;99654.83;2177024;81;50430;-77
2022/09/26 12:22:38;;;;;;;;;;;;;;;19.11;57.64;99644.95;2177302;80;51638;-76
2022/09/26 12:25:41;;;;;;;;;;;;;;;19.11;57.58;99634.72;2176868;80;50348;-77
2022/09/26 12:28:47;;;;;;;;;;;;;;;19.12;57.57;99634.52;2153233;81;49730;-76
2022/09/26 12:32:03;;;;;;;;;;;;;;;19.16;57.46;99629.55;2176862;80;51545;-77
2022/09/26 12:35:18;;;;;;;;;;;;;;;19.13;57.50;99629.98;2175505;80;51451;-77
2022/09/26 12:38:31;;;;;;;;;;;;;;;19.11;57.60;99617.30;2175115;82;51544;-77
2022/09/26 12:41:50;;;;;;;;;;;;;;;19.11;57.60;99616.80;2168000;81;22509;-77
2022/09/26 12:44:53;;;;;;;;;;;;;;;19.12;57.62;99621.64;2174781;82;50287;-77
2022/09/26 12:48:00;;;;;;;;;;;;;;;19.14;57.54;99614.21;2174917;82;50159;-77
2022/09/26 12:51:03;;;;;;;;;;;;;;;19.14;57.49;99614.21;2174479;82;51604;-77
2022/09/26 12:54:23;;;;;;;;;;;;;;;19.15;57.52;99619.87;2150809;82;52715;-77
2022/09/26 12:57:29;;;;;;;;;;;;;;;19.13;57.62;99609.34;2174912;82;51603;-77
2022/09/26 13:00:32;;;;;;;;;;;;;;;19.13;57.55;99601.30;2211960;80;51656;-77
2022/09/26 13:03:44;;;;;;;;;;;;;;;19.14;57.58;99596.26;2182330;80;51573;-77
2022/09/26 13:06:57;;;;;;;;;;;;;;;19.14;57.57;99588.22;2153326;81;51017;-76
2022/09/26 13:09:55;;;;;;;;;;;;;;;19.13;57.54;99587.89;2176089;80;22362;-77
2022/09/26 13:13:16;;;;;;;;;;;;;;;19.13;57.52;99593.77;2177027;80;50770;-78
2022/09/26 13:16:26;;;;;;;;;;;;;;;19.14;57.55;99588.73;2176983;81;50336;-77
2022/09/26 13:19:33;;;;;;;;;;;;;;;19.12;57.59;99592.14;2152917;81;50162;-77
2022/09/26 13:22:48;;;;;;;;;;;;;;;19.10;57.60;99588.32;2176508;81;50561;-77
2022/09/26 13:25:52;;;;;;;;;;;;;;;19.11;57.60;99590.48;2176900;81;50005;-77
2022/09/26 13:28:55;;;;;;;;;;;;;;;19.10;57.59;99578.12;2181607;81;51519;-78
2022/09/26 13:31:58;;;;;;;;;;;;;;;19.09;57.58;99573.28;2152888;81;51045;-77
2022/09/26 13:35:04;;;;;;;;;;;;;;;19.11;57.59;99579.75;2173910;81;50352;-77
2022/09/26 13:38:24;;;;;;;;;;;;;;;19.11;57.56;99575.73;2174426;81;50399;-77
2022/09/26 13:41:33;;;;;;;;;;;;;;;19.09;57.56;99571.94;2174885;81;51571;-77
2022/09/26 13:44:48;;;;;;;;;;;;;;;19.09;57.60;99571.12;2151536;81;53156;-77
2022/09/26 13:47:55;;;;;;;;;;;;;;;19.08;57.57;99563.57;2174635;81;50864;-77
2022/09/26 13:50:58;;;;;;;;;;;;;;;19.09;57.55;99551.02;2173945;82;51583;-77
2022/09/26 13:54:01;;;;;;;;;;;;;;;19.10;57.52;99550.78;2174752;80;51565;-77
2022/09/26 13:57:06;;;;;;;;;;;;;;;19.10;57.48;99547.28;2150427;82;50915;-77
2022/09/26 14:00:39;;;;;;;;;;;;;;;19.10;57.51;99542.73;2174665;81;51556;-77
2022/09/26 14:03:30;;;;;;;;;;;;;;;19.10;57.54;99540.58;2217980;80;22380;-77
2022/09/26 14:06:32;;;;;;;;;;;;;;;19.10;57.53;99532.02;2229078;80;50335;-77
2022/09/26 14:09:40;;;;;;;;;;;;;;;19.09;57.55;99526.36;2206657;80;50982;-77
2022/09/26 14:13:07;;;;;;;;;;;;;;;19.09;57.54;99526.88;2206162;80;51593;-77
2022/09/26 14:16:28;;;;;;;;;;;;;;;19.09;57.53;99517.50;2228862;80;51429;-77
2022/09/26 14:19:40;;;;;;;;;;;;;;;19.10;57.48;99511.91;2229095;80;50554;-77
2022/09/26 14:22:49;;;;;;;;;;;;;;;19.12;57.47;99503.66;2206668;80;52102;-77
2022/09/26 14:25:54;;;;;;;;;;;;;;;19.13;57.44;99503.95;2206429;80;51573;-77
2022/09/26 14:28:56;;;;;;;;;;;;;;;19.09;57.58;99497.39;2229199;80;51577;-77
2022/09/26 14:32:00;;;;;;;;;;;;;;;19.07;57.61;99497.59;2152313;81;51388;-77
2022/09/26 14:35:03;;;;;;;;;;;;;;;19.09;57.64;99493.37;2177338;80;22447;-78
2022/09/26 14:38:09;;;;;;;;;;;;;;;19.10;57.60;99497.69;2160847;81;50162;-77
2022/09/26 14:41:12;;;;;;;;;;;;;;;19.09;57.58;99486.67;2177126;80;50418;-78
2022/09/26 14:44:15;;;;;;;;;;;;;;;19.08;57.60;99480.45;2176545;80;50814;-77
2022/09/26 14:47:17;;;;;;;;;;;;;;;19.07;57.59;99480.16;2176971;81;50472;-77
2022/09/26 14:50:25;;;;;;;;;;;;;;;19.08;57.61;99482.33;2153620;81;49585;-77
2022/09/26 14:53:40;;;;;;;;;;;;;;;19.06;57.65;99471.83;2176808;80;50410;-77
2022/09/26 14:56:43;;;;;;;;;;;;;;;19.06;57.60;99477.20;2176947;80;51490;-77
2022/09/26 14:59:45;;;;;;;;;;;;;;;19.07;57.59;99473.98;2177091;81;51535;-77
2022/09/26 15:02:49;;;;;;;;;;;;;;;19.06;57.59;99477.69;2128557;82;51053;-78
2022/09/26 15:05:50;;;;;;;;;;;;;;;19.06;57.60;99470.98;2176477;79;22237;-77
2022/09/26 15:08:52;;;;;;;;;;;;;;;19.06;57.54;99473.67;2177111;81;51521;-77
2022/09/26 15:11:58;;;;;;;;;;;;;;;19.05;57.56;99476.88;2177190;80;51544;-77
2022/09/26 15:15:01;;;;;;;;;;;;;;;19.05;57.53;99466.67;2152416;81;52807;-77
2022/09/26 15:18:07;;;;;;;;;;;;;;;19.06;57.58;99461.60;2176152;80;51514;-77
2022/09/26 15:21:21;;;;;;;;;;;;;;;19.04;57.55;99467.20;2177022;79;22448;-77
2022/09/26 15:24:26;;;;;;;;;;;;;;;19.04;57.57;99447.09;2176878;81;50677;-78
2022/09/26 15:27:28;;;;;;;;;;;;;;;19.04;57.52;99453.80;2153119;81;51023;-78
2022/09/26 15:30:33;;;;;;;;;;;;;;;19.06;57.55;99458.92;2176989;81;51480;-78
2022/09/26 15:33:36;;;;;;;;;;;;;;;19.04;57.55;99461.02;2176930;80;51408;-78
2022/09/26 15:36:38;;;;;;;;;;;;;;;19.03;57.53;99455.34;2177022;81;50450;-78
2022/09/26 15:39:40;;;;;;;;;;;;;;;19.05;57.53;99451.92;2153300;81;52473;-78
2022/09/26 15:42:57;;;;;;;;;;;;;;;19.04;57.51;99457.00;2153700;81;50296;-77
2022/09/26 15:45:59;;;;;;;;;;;;;;;19.03;57.54;99445.95;2179253;81;51666;-77
2022/09/26 15:49:01;;;;;;;;;;;;;;;19.03;57.52;99444.61;2176977;80;51564;-77
2022/09/26 15:52:02;;;;;;;;;;;;;;;19.02;57.45;99445.14;2153318;81;50977;-77
2022/09/26 15:55:04;;;;;;;;;;;;;;;19.03;57.52;99440.59;2176878;81;51467;-77
2022/09/26 15:58:06;;;;;;;;;;;;;;;19.03;57.48;99433.36;2176984;80;50666;-77
2022/09/26 16:01:09;;;;;;;;;;;;;;;19.02;57.44;99430.91;2177092;80;50775;-77
2022/09/26 16:04:20;;;;;;;;;;;;;;;19.02;57.44;99429.05;2153356;81;49679;-77
2022/09/26 16:07:25;;;;;;;;;;;;;;;19.02;57.49;99429.58;2177153;81;51589;-77
2022/09/26 16:10:28;;;;;;;;;;;;;;;19.01;57.44;99425.23;2177039;81;51614;-77